Akola Airport


Codes: VAAK/AKD
Name: Akola Airport
City:
Country: India
Elevation: 999 ft.

Photos at Akola Airport


   Photos courtesy of SpottingLog. You can add your own sightings and photos by signing up for a free trial today.



No photos found.

Weather at Akola Airport


Time (UTC)DescriptionTempratureWindCloud coverageVisibilityPressureHumidity
23-May-2024 21:00Broken Clouds38°C9 mph, SW61%10000m998hPa22%
24-May-2024 00:00Broken Clouds36°C16 mph, W67%10000m999hPa26%
24-May-2024 03:00Scattered Clouds37°C16 mph, W35%10000m1000hPa24%
24-May-2024 06:00Few Clouds43°C18 mph, NW19%10000m999hPa13%
24-May-2024 09:00Few Clouds45°C18 mph, NW21%10000m996hPa12%
24-May-2024 12:00Scattered Clouds44°C20 mph, NW44%10000m994hPa11%
24-May-2024 15:00Broken Clouds41°C13 mph, W70%10000m996hPa14%
24-May-2024 18:00Overcast Clouds40°C25 mph, W86%10000m997hPa16%
24-May-2024 21:00Scattered Clouds34°C20 mph, W40%10000m997hPa29%
25-May-2024 00:00Few Clouds32°C20 mph, NW22%10000m998hPa36%
25-May-2024 03:00Clear Sky36°C22 mph, NW4%10000m999hPa29%
25-May-2024 06:00Clear Sky43°C18 mph, NW2%10000m998hPa18%
25-May-2024 09:00Clear Sky45°C20 mph, NW10%10000m995hPa15%
25-May-2024 12:00Broken Clouds43°C18 mph, NW55%10000m994hPa16%
25-May-2024 15:00Overcast Clouds42°C16 mph, NW89%10000m996hPa17%
25-May-2024 18:00Overcast Clouds38°C27 mph, W95%10000m996hPa24%
25-May-2024 21:00Broken Clouds34°C27 mph, NW84%10000m995hPa40%
26-May-2024 00:00Overcast Clouds31°C20 mph, NW92%10000m998hPa48%
26-May-2024 03:00Overcast Clouds32°C18 mph, NW91%10000m1000hPa49%
26-May-2024 06:00Overcast Clouds40°C20 mph, NW93%10000m999hPa25%
26-May-2024 09:00Overcast Clouds44°C25 mph, NW87%10000m995hPa19%
26-May-2024 12:00Broken Clouds42°C22 mph, W74%10000m994hPa18%
26-May-2024 15:00Overcast Clouds39°C25 mph, W100%10000m996hPa22%
26-May-2024 18:00Overcast Clouds34°C29 mph, W100%10000m996hPa37%
26-May-2024 21:00Overcast Clouds32°C27 mph, W100%10000m995hPa47%
27-May-2024 00:00Overcast Clouds30°C18 mph, NW100%10000m999hPa58%
27-May-2024 03:00Overcast Clouds31°C25 mph, W100%10000m1001hPa57%
27-May-2024 06:00Overcast Clouds35°C27 mph, W100%10000m1000hPa41%
27-May-2024 09:00Overcast Clouds40°C22 mph, NW100%10000m997hPa23%
27-May-2024 12:00Overcast Clouds40°C22 mph, NW100%10000m996hPa22%
27-May-2024 15:00Overcast Clouds35°C25 mph, W100%10000m998hPa33%
27-May-2024 18:00Overcast Clouds34°C25 mph, W100%10000m998hPa39%
27-May-2024 21:00Overcast Clouds31°C25 mph, W100%10000m998hPa51%
28-May-2024 00:00Overcast Clouds29°C20 mph, W93%10000m1000hPa58%
28-May-2024 03:00Overcast Clouds31°C22 mph, W100%10000m1003hPa47%
28-May-2024 06:00Overcast Clouds37°C25 mph, NW93%10000m1001hPa30%
28-May-2024 09:00Broken Clouds41°C25 mph, NW62%10000m997hPa20%
28-May-2024 12:00Broken Clouds41°C25 mph, W55%10000m995hPa19%
28-May-2024 15:00Overcast Clouds37°C22 mph, W100%10000m997hPa25%
28-May-2024 18:00Overcast Clouds34°C20 mph, W100%10000m999hPa33%